createdAt,value
2023-04-25T00:00:18.878Z,96241.63
2023-04-25T00:02:45.763Z,96240.06
2023-04-25T00:05:13.120Z,96236.56
2023-04-25T00:07:39.998Z,96236.56
2023-04-25T00:10:07.689Z,96232.56
2023-04-25T00:12:34.922Z,96230.31
2023-04-25T00:15:01.898Z,96213.41
2023-04-25T00:17:29.410Z,96210.53
2023-04-25T00:19:56.913Z,96218.66
2023-04-25T00:22:23.521Z,96218.34
2023-04-25T00:24:50.493Z,96214.03
2023-04-25T00:27:17.372Z,96212.44
2023-04-25T00:29:43.965Z,96217.88
2023-04-25T00:32:11.019Z,96212.59
2023-04-25T00:34:37.710Z,96212.78
2023-04-25T00:37:04.414Z,96212.28
2023-04-25T00:39:31.455Z,96209.91
2023-04-25T00:41:58.941Z,96203.97
2023-04-25T00:44:26.186Z,96205.09
2023-04-25T00:46:55.316Z,96202.06
2023-04-25T00:49:22.174Z,96198.09
2023-04-25T00:51:49.270Z,96196.47
2023-04-25T00:54:16.756Z,96197.13
2023-04-25T00:56:43.949Z,96188.03
2023-04-25T00:59:10.899Z,96188.34
2023-04-25T01:01:39.219Z,96190.72
2023-04-25T01:04:06.240Z,96192.66
2023-04-25T01:06:33.220Z,96192.19
2023-04-25T01:09:00.696Z,96182.75
2023-04-25T01:11:27.507Z,96180.06
2023-04-25T01:13:54.202Z,96185.47
2023-04-25T01:16:21.523Z,96185.00
2023-04-25T01:18:48.908Z,96177.19
2023-04-25T01:21:15.884Z,96186.59
2023-04-25T01:23:43.763Z,96192.81
2023-04-25T01:26:12.465Z,96188.81
2023-04-25T01:28:46.680Z,96174.81
2023-04-25T01:31:13.225Z,96185.66
2023-04-25T01:33:40.256Z,96178.59
2023-04-25T01:36:07.389Z,96183.22
2023-04-25T01:38:34.336Z,96167.94
2023-04-25T01:41:01.064Z,96172.22
2023-04-25T01:43:27.983Z,96165.66
2023-04-25T01:45:55.378Z,96158.66
2023-04-25T01:48:22.120Z,96171.44
2023-04-25T01:50:48.948Z,96172.41
2023-04-25T01:53:15.885Z,96168.38
2023-04-25T01:55:42.685Z,96163.75
2023-04-25T01:58:11.023Z,96163.75
2023-04-25T02:00:41.780Z,96165.84
2023-04-25T02:03:09.598Z,96163.13
2023-04-25T02:05:40.475Z,96169.06
2023-04-25T02:08:09.297Z,96159.31
2023-04-25T02:10:36.525Z,96159.44
2023-04-25T02:13:03.929Z,96164.72
2023-04-25T02:15:30.896Z,96159.63
2023-04-25T02:17:57.825Z,96161.69
2023-04-25T02:20:26.085Z,96161.34
2023-04-25T02:22:52.846Z,96149.84
2023-04-25T02:25:21.061Z,96158.16
2023-04-25T02:27:49.319Z,96157.81
2023-04-25T02:30:16.370Z,96154.03
2023-04-25T02:32:43.204Z,96156.22
2023-04-25T02:35:10.990Z,96166.91
2023-04-25T02:37:38.956Z,96157.97
2023-04-25T02:40:06.751Z,96153.03
2023-04-25T02:42:33.770Z,96156.38
2023-04-25T02:45:00.440Z,96152.84
2023-04-25T02:47:27.346Z,96147.28
2023-04-25T02:49:54.218Z,96147.78
2023-04-25T02:52:22.245Z,96151.09
2023-04-25T02:54:48.861Z,96153.97
2023-04-25T02:57:15.966Z,96161.16
2023-04-25T02:59:42.566Z,96147.91
2023-04-25T03:02:09.294Z,96155.41
2023-04-25T03:04:36.287Z,96152.34
2023-04-25T03:07:03.514Z,96155.41
2023-04-25T03:09:30.095Z,96145.97
2023-04-25T03:11:56.864Z,96151.56
2023-04-25T03:14:23.474Z,96132.25
2023-04-25T03:16:50.171Z,96143.44
2023-04-25T03:19:19.872Z,96142.31
2023-04-25T03:21:46.559Z,96145.00
2023-04-25T03:24:13.482Z,96143.09
2023-04-25T03:26:40.554Z,96144.56
2023-04-25T03:29:07.271Z,96140.22
2023-04-25T03:31:33.965Z,96144.84
2023-04-25T03:34:01.339Z,96148.69
2023-04-25T03:36:28.045Z,96139.25
2023-04-25T03:38:54.743Z,96142.13
2023-04-25T03:41:22.164Z,96137.50
2023-04-25T03:43:49.062Z,96137.31
2023-04-25T03:46:15.896Z,96142.25
2023-04-25T03:48:46.441Z,96150.38
2023-04-25T03:51:13.058Z,96141.63
2023-04-25T03:53:39.687Z,96134.78
2023-04-25T03:56:06.910Z,96140.53
2023-04-25T03:58:33.522Z,96133.03
2023-04-25T04:01:00.356Z,96128.72
2023-04-25T04:03:27.818Z,96132.41
2023-04-25T04:05:54.839Z,96133.38
2023-04-25T04:08:21.600Z,96126.34
2023-04-25T04:10:48.526Z,96123.63
2023-04-25T04:13:15.342Z,96122.06
2023-04-25T04:15:42.123Z,96128.75
2023-04-25T04:18:09.092Z,96127.81
2023-04-25T04:20:35.938Z,96130.69
2023-04-25T04:23:02.614Z,96120.97
2023-04-25T04:25:29.965Z,96121.75
2023-04-25T04:27:56.662Z,96115.56
2023-04-25T04:30:30.792Z,96121.94
2023-04-25T04:32:57.613Z,96124.81
2023-04-25T04:35:25.836Z,96124.66
2023-04-25T04:37:52.636Z,96125.28
2023-04-25T04:40:19.664Z,96120.03
2023-04-25T04:42:47.665Z,96124.34
2023-04-25T04:45:14.742Z,96125.94
2023-04-25T04:47:41.709Z,96128.63
2023-04-25T04:50:10.329Z,96122.91
2023-04-25T04:52:38.078Z,96127.22
2023-04-25T04:55:06.538Z,96123.06
2023-04-25T04:57:34.085Z,96119.56
2023-04-25T05:00:00.961Z,96128.00
2023-04-25T05:02:28.452Z,96119.25
2023-04-25T05:04:55.625Z,96124.06
2023-04-25T05:07:22.666Z,96111.47
2023-04-25T05:09:51.155Z,96109.38
2023-04-25T05:12:17.792Z,96114.31
2023-04-25T05:14:44.776Z,96114.78
2023-04-25T05:17:11.807Z,96116.72
2023-04-25T05:19:39.033Z,96115.63
2023-04-25T05:22:06.202Z,96111.78
2023-04-25T05:24:32.816Z,96114.66
2023-04-25T05:26:59.494Z,96114.84
2023-04-25T05:29:26.448Z,96118.03
2023-04-25T05:31:54.130Z,96109.75
2023-04-25T05:34:20.938Z,96116.91
2023-04-25T05:36:49.575Z,96113.56
2023-04-25T05:39:19.346Z,96113.72
2023-04-25T05:41:46.036Z,96117.38
2023-04-25T05:44:13.036Z,96112.56
2023-04-25T05:46:40.071Z,96111.63
2023-04-25T05:49:06.804Z,96103.31
2023-04-25T05:51:33.749Z,96099.34
2023-04-25T05:54:00.704Z,96108.41
2023-04-25T05:56:27.410Z,96111.09
2023-04-25T05:58:54.622Z,96097.84
2023-04-25T06:01:22.930Z,96108.22
2023-04-25T06:03:50.084Z,96104.22
2023-04-25T06:06:17.497Z,96106.09
2023-04-25T06:08:48.413Z,96107.97
2023-04-25T06:11:15.085Z,96112.25
2023-04-25T06:13:41.950Z,96102.00
2023-04-25T06:16:08.838Z,96105.34
2023-04-25T06:18:35.802Z,96107.56
2023-04-25T06:21:02.741Z,96098.72
2023-04-25T06:23:29.578Z,96104.94
2023-04-25T06:25:56.258Z,96098.84
2023-04-25T06:28:23.273Z,96101.06
2023-04-25T06:30:50.030Z,96095.59
2023-04-25T06:33:16.624Z,96099.69
2023-04-25T06:35:43.616Z,96099.03
2023-04-25T06:38:10.384Z,96078.63
2023-04-25T06:40:37.032Z,96092.09
2023-04-25T06:43:03.893Z,96093.75
2023-04-25T06:45:30.889Z,96084.75
2023-04-25T06:47:57.584Z,96091.63
2023-04-25T06:50:24.346Z,96096.78
2023-04-25T06:52:51.359Z,96084.03
2023-04-25T06:55:18.068Z,96086.25
2023-04-25T06:57:45.108Z,96080.88
2023-04-25T07:00:12.440Z,96084.97
2023-04-25T07:02:39.269Z,96091.44
2023-04-25T07:05:06.739Z,96084.44
2023-04-25T07:07:33.468Z,96078.41
2023-04-25T07:10:00.156Z,96085.56
2023-04-25T07:12:26.898Z,96081.63
2023-04-25T07:14:53.597Z,96074.78
2023-04-25T07:17:20.246Z,96080.56
2023-04-25T07:19:47.131Z,96080.34
2023-04-25T07:22:13.922Z,96073.75
2023-04-25T07:24:40.904Z,96067.72
2023-04-25T07:27:07.847Z,96067.94
2023-04-25T07:29:37.753Z,96061.00
2023-04-25T07:32:04.924Z,96062.47
2023-04-25T07:34:31.981Z,96061.56
2023-04-25T07:37:00.306Z,96064.84
2023-04-25T07:39:27.442Z,96069.38
2023-04-25T07:41:55.353Z,96058.19
2023-04-25T07:44:22.527Z,96056.13
2023-04-25T07:46:49.262Z,96055.09
2023-04-25T07:49:16.678Z,96052.91
2023-04-25T07:51:44.543Z,96038.34
2023-04-25T07:54:15.085Z,96050.53
2023-04-25T07:56:52.167Z,96054.41
2023-04-25T07:59:20.710Z,96058.28
2023-04-25T08:01:47.814Z,96048.59
2023-04-25T08:07:32.594Z,96048.28
2023-04-25T08:09:59.254Z,96048.13
2023-04-25T08:12:26.030Z,96044.19
2023-04-25T08:14:52.765Z,96034.69
2023-04-25T08:17:19.403Z,96037.16
2023-04-25T08:19:46.119Z,96035.41
2023-04-25T08:22:13.772Z,96041.34
2023-04-25T08:24:40.518Z,96037.97
2023-04-25T08:27:08.741Z,96028.34
2023-04-25T08:29:36.151Z,96041.66
2023-04-25T08:32:02.766Z,96039.25
2023-04-25T08:34:29.386Z,96034.88
2023-04-25T08:36:56.348Z,96034.56
2023-04-25T08:39:23.057Z,96037.56
2023-04-25T08:41:49.895Z,96037.69
2023-04-25T08:44:17.948Z,96033.47
2023-04-25T08:46:50.877Z,96029.63
2023-04-25T08:49:20.065Z,96033.00
2023-04-25T08:51:48.330Z,96025.06
2023-04-25T08:54:30.210Z,96023.75
2023-04-25T08:57:05.756Z,96033.84
2023-04-25T08:59:33.452Z,96021.69
2023-04-25T09:02:02.160Z,96017.47
2023-04-25T09:04:31.253Z,96017.63
2023-04-25T09:06:58.036Z,96022.03
2023-04-25T09:09:25.460Z,96016.94
2023-04-25T09:11:56.017Z,96009.50
2023-04-25T09:14:26.163Z,96007.97
2023-04-25T09:17:00.589Z,96004.34
2023-04-25T09:19:39.836Z,95994.06
2023-04-25T09:22:08.579Z,96002.03
2023-04-25T09:24:41.000Z,96000.56
2023-04-25T09:27:10.071Z,96002.28
2023-04-25T09:29:38.879Z,95991.03
2023-04-25T09:32:19.983Z,95992.16
2023-04-25T09:34:52.046Z,95992.84
2023-04-25T09:37:37.074Z,95989.53
2023-04-25T09:40:08.424Z,95987.19
2023-04-25T09:42:35.754Z,95993.66
2023-04-25T09:45:04.880Z,95976.78
2023-04-25T09:47:31.981Z,95983.22
2023-04-25T09:49:59.482Z,95976.22
2023-04-25T09:52:26.797Z,95973.88
2023-04-25T09:54:54.113Z,95965.06
2023-04-25T09:57:22.316Z,95949.06
2023-04-25T09:59:51.148Z,95959.69
2023-04-25T10:02:21.397Z,95955.38
2023-04-25T10:04:54.007Z,95955.34
2023-04-25T10:07:22.465Z,95941.97
2023-04-25T10:09:51.454Z,95941.56
2023-04-25T10:12:18.232Z,95941.38
2023-04-25T10:14:46.878Z,95942.41
2023-04-25T10:17:13.821Z,95933.78
2023-04-25T10:19:40.530Z,95930.03
2023-04-25T10:22:19.751Z,95928.28
2023-04-25T10:24:47.755Z,95926.19
2023-04-25T10:27:14.668Z,95923.50
2023-04-25T10:29:44.428Z,95914.84
2023-04-25T10:32:11.419Z,95920.28
2023-04-25T10:34:48.290Z,95911.91
2023-04-25T10:37:15.287Z,95906.31
2023-04-25T10:39:43.453Z,95909.41
2023-04-25T10:42:10.323Z,95900.72
2023-04-25T10:44:39.192Z,95915.69
2023-04-25T10:47:08.306Z,95902.75
2023-04-25T10:49:42.507Z,95899.63
2023-04-25T10:52:12.813Z,95894.53
2023-04-25T10:54:59.184Z,95903.22
2023-04-25T10:57:39.879Z,95905.22
2023-04-25T11:00:10.795Z,95888.03
2023-04-25T11:02:54.622Z,95893.31
2023-04-25T11:05:54.959Z,95889.81
2023-04-25T11:08:48.815Z,95893.88
2023-04-25T11:11:17.398Z,95893.19
2023-04-25T11:13:48.477Z,95884.53
2023-04-25T11:18:48.854Z,95888.94
2023-04-25T11:21:15.806Z,95863.00
2023-04-25T11:23:48.896Z,95878.03
2023-04-25T11:26:16.362Z,95876.13
2023-04-25T11:28:46.318Z,95869.53
2023-04-25T11:31:12.997Z,95871.97
2023-04-25T11:33:41.790Z,95873.50
2023-04-25T11:36:08.662Z,95861.66
2023-04-25T11:38:35.659Z,95858.06
2023-04-25T11:41:02.772Z,95865.50
2023-04-25T11:43:29.477Z,95862.72
2023-04-25T11:45:56.657Z,95859.56
2023-04-25T11:48:25.883Z,95849.34
2023-04-25T11:50:54.595Z,95857.94
2023-04-25T11:53:21.507Z,95855.50
2023-04-25T11:55:48.947Z,95856.06
2023-04-25T11:58:15.577Z,95851.16
2023-04-25T12:00:50.615Z,95860.31
2023-04-25T12:03:19.777Z,95849.94
2023-04-25T12:05:47.623Z,95845.50
2023-04-25T12:08:15.516Z,95840.97
2023-04-25T12:10:44.215Z,95850.38
2023-04-25T12:13:27.810Z,95834.91
2023-04-25T12:15:57.748Z,95837.22
2023-04-25T12:18:28.951Z,95836.59
2023-04-25T12:20:56.101Z,95834.00
2023-04-25T12:23:29.743Z,95816.44
2023-04-25T12:25:56.934Z,95828.38
2023-04-25T12:28:25.307Z,95836.22
2023-04-25T12:31:07.892Z,95832.69
2023-04-25T12:33:38.717Z,95814.78
2023-04-25T12:36:10.369Z,95828.13
2023-04-25T12:38:41.785Z,95831.22
2023-04-25T12:41:09.136Z,95819.25
2023-04-25T12:43:36.328Z,95823.84
2023-04-25T12:46:03.035Z,95829.91
2023-04-25T12:48:29.713Z,95832.84
2023-04-25T12:50:56.483Z,95836.19
2023-04-25T12:53:25.377Z,95830.81
2023-04-25T12:55:52.423Z,95837.69
2023-04-25T12:58:20.173Z,95833.53
2023-04-25T13:00:47.359Z,95835.66
2023-04-25T13:03:14.360Z,95843.25
2023-04-25T13:05:41.354Z,95842.41
2023-04-25T13:08:08.493Z,95839.16
2023-04-25T13:10:35.196Z,95845.38
2023-04-25T13:13:02.381Z,95837.44
2023-04-25T13:15:29.568Z,95833.69
2023-04-25T13:17:57.221Z,95841.03
2023-04-25T13:20:24.135Z,95842.47
2023-04-25T13:22:50.954Z,95837.38
2023-04-25T13:25:17.739Z,95829.09
2023-04-25T13:27:45.843Z,95836.06
2023-04-25T13:30:13.101Z,95837.22
2023-04-25T13:32:40.652Z,95829.66
2023-04-25T13:35:10.778Z,95820.00
2023-04-25T13:37:38.398Z,95817.97
2023-04-25T13:40:09.962Z,95819.91
2023-04-25T13:42:37.834Z,95820.63
2023-04-25T13:45:04.700Z,95826.94
2023-04-25T13:47:31.708Z,95824.66
2023-04-25T13:49:58.711Z,95826.44
2023-04-25T13:52:25.444Z,95826.16
2023-04-25T13:54:52.283Z,95838.25
2023-04-25T13:57:19.685Z,95832.78
2023-04-25T13:59:47.500Z,95837.44
2023-04-25T14:02:14.456Z,95838.25
2023-04-25T14:04:41.976Z,95849.94
2023-04-25T14:07:09.461Z,95840.97
2023-04-25T14:09:36.319Z,95839.72
2023-04-25T14:12:03.232Z,95838.31
2023-04-25T14:14:29.993Z,95836.84
2023-04-25T14:16:58.093Z,95846.06
2023-04-25T14:19:25.797Z,95835.31
2023-04-25T14:21:52.432Z,95818.63
2023-04-25T14:24:19.186Z,95846.69
2023-04-25T14:26:46.104Z,95843.94
2023-04-25T14:29:13.166Z,95834.31
2023-04-25T14:31:41.495Z,95853.78
2023-04-25T14:34:09.064Z,95837.84
2023-04-25T14:36:37.467Z,95837.75
2023-04-25T14:39:06.304Z,95826.38
2023-04-25T14:41:33.345Z,95839.41
2023-04-25T14:44:00.060Z,95840.47
2023-04-25T14:46:27.680Z,95849.53
2023-04-25T14:48:56.875Z,95855.28
2023-04-25T14:51:23.709Z,95845.25
2023-04-25T14:53:52.034Z,95839.34
2023-04-25T14:56:19.813Z,95845.91
2023-04-25T15:01:14.083Z,95830.72
2023-04-25T15:03:48.607Z,95835.38
2023-04-25T15:06:15.588Z,95843.44
2023-04-25T15:08:42.225Z,95843.47
2023-04-25T15:11:09.129Z,95839.88
2023-04-25T15:13:36.004Z,95848.72
2023-04-25T15:16:02.793Z,95846.31
2023-04-25T15:18:29.469Z,95862.53
2023-04-25T15:20:56.170Z,95872.38
2023-04-25T15:23:23.055Z,95869.91
2023-04-25T15:25:51.626Z,95858.66
2023-04-25T15:28:18.373Z,95861.38
2023-04-25T15:30:45.750Z,95861.50
2023-04-25T15:33:12.537Z,95870.22
2023-04-25T15:35:39.227Z,95857.56
2023-04-25T15:38:06.615Z,95851.44
2023-04-25T15:40:33.344Z,95853.00
2023-04-25T15:43:00.591Z,95839.28
2023-04-25T15:45:27.395Z,95849.59
2023-04-25T15:47:57.386Z,95849.59
2023-04-25T15:50:24.960Z,95853.47
2023-04-25T15:52:52.187Z,95860.28
2023-04-25T15:55:21.853Z,95867.41
2023-04-25T15:57:51.223Z,95856.50
2023-04-25T16:00:19.551Z,95848.47
2023-04-25T16:02:48.647Z,95862.06
2023-04-25T16:05:15.831Z,95855.41
2023-04-25T16:07:44.026Z,95859.69
2023-04-25T16:10:11.820Z,95857.44
2023-04-25T16:12:42.093Z,95858.22
2023-04-25T16:15:09.394Z,95859.16
2023-04-25T16:17:36.475Z,95863.88
2023-04-25T16:20:09.905Z,95868.19
2023-04-25T16:22:38.892Z,95860.81
2023-04-25T16:25:06.291Z,95876.56
2023-04-25T16:27:34.790Z,95880.03
2023-04-25T16:30:02.990Z,95883.00
2023-04-25T16:32:29.857Z,95896.91
2023-04-25T16:34:58.665Z,95883.06
2023-04-25T16:37:26.200Z,95882.81
2023-04-25T16:39:53.046Z,95886.69
2023-04-25T16:42:19.853Z,95887.34
2023-04-25T16:44:46.880Z,95888.00
2023-04-25T16:47:16.871Z,95893.91
2023-04-25T16:49:45.825Z,95898.44
2023-04-25T16:52:13.146Z,95897.50
2023-04-25T16:54:40.142Z,95899.44
2023-04-25T16:57:11.021Z,95913.47
2023-04-25T16:59:39.355Z,95910.44
2023-04-25T17:02:08.473Z,95901.25
2023-04-25T17:04:41.985Z,95915.63
2023-04-25T17:07:09.186Z,95912.66
2023-04-25T17:09:36.379Z,95923.50
2023-04-25T17:12:10.884Z,95917.47
2023-04-25T17:14:37.598Z,95922.28
2023-04-25T17:17:04.556Z,95928.38
2023-04-25T17:19:39.299Z,95931.91
2023-04-25T17:22:06.598Z,95932.56
2023-04-25T17:24:33.265Z,95937.06
2023-04-25T17:27:00.156Z,95937.94
2023-04-25T17:29:27.872Z,95934.59
2023-04-25T17:31:54.617Z,95940.09
2023-04-25T17:34:23.283Z,95932.47
2023-04-25T17:36:50.185Z,95944.63
2023-04-25T17:39:23.247Z,95933.19
2023-04-25T17:41:50.112Z,95951.84
2023-04-25T17:44:16.887Z,95942.31
2023-04-25T17:46:43.798Z,95953.63
2023-04-25T17:49:11.844Z,95950.91
2023-04-25T17:51:38.632Z,95950.78
2023-04-25T17:54:05.360Z,95953.34
2023-04-25T17:56:34.310Z,95954.69
2023-04-25T17:59:01.797Z,95956.13
2023-04-25T18:01:30.991Z,95963.31
2023-04-25T18:03:57.921Z,95956.34
2023-04-25T18:06:24.816Z,95963.53
2023-04-25T18:08:53.075Z,95961.00
2023-04-25T18:11:20.151Z,95967.22
2023-04-25T18:13:47.062Z,95964.81
2023-04-25T18:16:16.009Z,95982.06
2023-04-25T18:18:52.927Z,95976.94
2023-04-25T18:21:20.347Z,95982.06
2023-04-25T18:23:47.375Z,95992.78
2023-04-25T18:26:14.599Z,95988.34
2023-04-25T18:28:41.560Z,95982.31
2023-04-25T18:31:09.555Z,95989.84
2023-04-25T18:33:36.602Z,95989.19
2023-04-25T18:36:03.321Z,95988.56
2023-04-25T18:41:10.721Z,95988.88
2023-04-25T18:43:46.870Z,95987.63
2023-04-25T18:46:13.628Z,95997.81
2023-04-25T18:48:42.694Z,95983.63
2023-04-25T18:51:09.598Z,95983.31
2023-04-25T18:53:37.466Z,95997.50
2023-04-25T18:56:04.696Z,95980.28
2023-04-25T18:58:31.651Z,95991.47
2023-04-25T19:00:58.334Z,95990.66
2023-04-25T19:03:25.377Z,95998.13
2023-04-25T19:05:52.403Z,95995.28
2023-04-25T19:08:19.249Z,96003.41
2023-04-25T19:10:46.430Z,95992.88
2023-04-25T19:13:13.754Z,95999.41
2023-04-25T19:15:40.418Z,95996.69
2023-04-25T19:18:07.117Z,96001.28
2023-04-25T19:20:34.097Z,96001.47
2023-04-25T19:23:01.099Z,95996.03
2023-04-25T19:25:27.963Z,95994.13
2023-04-25T19:27:54.718Z,95995.88
2023-04-25T19:30:21.391Z,96003.03
2023-04-25T19:32:48.119Z,96010.03
2023-04-25T19:35:15.017Z,96016.25
2023-04-25T19:37:47.052Z,96013.19
2023-04-25T19:40:20.222Z,96014.59
2023-04-25T19:42:47.355Z,96015.03
2023-04-25T19:45:14.023Z,96012.31
2023-04-25T19:47:42.053Z,96012.75
2023-04-25T19:50:10.117Z,96015.75
2023-04-25T19:52:38.002Z,96017.06
2023-04-25T19:55:05.367Z,96018.66
2023-04-25T19:57:37.826Z,96020.56
2023-04-25T20:00:08.959Z,96014.53
2023-04-25T20:02:35.705Z,96006.59
2023-04-25T20:05:04.827Z,96011.84
2023-04-25T20:07:31.555Z,96021.41
2023-04-25T20:09:58.248Z,96014.09
2023-04-25T20:12:24.994Z,96018.72
2023-04-25T20:14:51.942Z,96019.50
2023-04-25T20:17:18.606Z,96009.00
2023-04-25T20:19:45.227Z,96013.81
2023-04-25T20:22:12.231Z,96010.63
2023-04-25T20:24:39.593Z,96009.03
2023-04-25T20:27:07.404Z,96016.69
2023-04-25T20:29:34.031Z,96017.16
2023-04-25T20:32:02.709Z,96018.16
2023-04-25T20:34:31.659Z,96019.13
2023-04-25T20:36:58.329Z,96015.78
2023-04-25T20:39:25.141Z,96008.47
2023-04-25T20:41:52.666Z,96013.88
2023-04-25T20:44:23.612Z,96009.53
2023-04-25T20:46:51.676Z,96004.78
2023-04-25T20:49:23.673Z,96013.69
2023-04-25T20:51:50.411Z,96003.78
2023-04-25T20:54:17.464Z,96007.94
2023-04-25T20:56:44.863Z,96007.16
2023-04-25T20:59:12.035Z,96001.88
2023-04-25T21:01:38.716Z,96006.84
2023-04-25T21:04:06.823Z,95996.16
2023-04-25T21:06:34.664Z,96005.72
2023-04-25T21:09:01.284Z,96004.91
2023-04-25T21:11:28.096Z,96007.94
2023-04-25T21:13:54.888Z,96013.38
2023-04-25T21:16:21.550Z,96013.03
2023-04-25T21:18:48.599Z,96010.66
2023-04-25T21:21:15.341Z,96014.94
2023-04-25T21:23:42.438Z,96016.88
2023-04-25T21:26:09.188Z,96017.81
2023-04-25T21:28:35.886Z,96020.81
2023-04-25T21:31:03.225Z,96018.72
2023-04-25T21:33:30.370Z,96015.03
2023-04-25T21:35:57.004Z,96024.56
2023-04-25T21:38:23.687Z,96027.59
2023-04-25T21:40:50.464Z,96023.94
2023-04-25T21:43:17.162Z,96018.81
2023-04-25T21:46:06.339Z,96020.56
2023-04-25T21:48:30.822Z,96016.09
2023-04-25T21:50:57.570Z,96014.19
2023-04-25T21:53:26.394Z,96021.00
2023-04-25T21:55:53.481Z,96033.28
2023-04-25T21:58:20.115Z,96028.66
2023-04-25T22:00:46.833Z,96027.56
2023-04-25T22:03:16.472Z,96027.88
2023-04-25T22:05:44.326Z,96031.53
2023-04-25T22:08:11.044Z,96034.75
2023-04-25T22:10:40.102Z,96031.25
2023-04-25T22:13:06.755Z,96034.06
2023-04-25T22:15:33.381Z,96024.34
2023-04-25T22:18:00.363Z,96031.00
2023-04-25T22:20:28.055Z,96033.84
2023-04-25T22:22:55.754Z,96027.41
2023-04-25T22:25:26.794Z,96029.47
2023-04-25T22:27:53.461Z,96036.16
2023-04-25T22:30:20.227Z,96036.16
2023-04-25T22:32:47.301Z,96033.09
2023-04-25T22:35:14.012Z,96035.31
2023-04-25T22:37:41.769Z,96028.41
2023-04-25T22:40:11.828Z,96039.38
2023-04-25T22:42:43.319Z,96032.38
2023-04-25T22:45:11.026Z,96034.56
2023-04-25T22:47:38.759Z,96031.41
2023-04-25T22:50:13.166Z,96030.91
2023-04-25T22:52:40.650Z,96030.72
2023-04-25T22:55:07.531Z,96035.66
2023-04-25T22:57:37.047Z,96033.56
2023-04-25T23:00:09.769Z,96036.53
2023-04-25T23:02:37.215Z,96027.47
2023-04-25T23:05:06.997Z,96031.94
2023-04-25T23:07:35.219Z,96028.75
2023-04-25T23:10:02.087Z,96031.94
2023-04-25T23:12:28.681Z,96023.16
2023-04-25T23:14:55.644Z,96026.47
2023-04-25T23:17:22.485Z,96026.47
2023-04-25T23:19:49.107Z,96034.91
2023-04-25T23:22:16.001Z,96026.72
2023-04-25T23:24:42.608Z,96032.13
2023-04-25T23:27:09.498Z,96033.75
2023-04-25T23:29:36.528Z,96038.44
2023-04-25T23:32:03.319Z,96034.59
2023-04-25T23:34:31.651Z,96019.94
2023-04-25T23:37:00.979Z,96033.81
2023-04-25T23:39:28.223Z,96044.75
2023-04-25T23:41:55.095Z,96041.06
2023-04-25T23:44:23.601Z,96044.97
2023-04-25T23:46:50.451Z,96039.06
2023-04-25T23:49:17.114Z,96045.44
2023-04-25T23:51:43.809Z,96050.50
2023-04-25T23:54:10.494Z,96040.59
2023-04-25T23:56:37.133Z,96055.31
2023-04-25T23:59:04.177Z,96054.59
